createdAt,value
2023-04-27T00:02:11.753Z,15.80
2023-04-27T00:04:39.657Z,14.32
2023-04-27T00:07:07.455Z,16.23
2023-04-27T00:09:35.183Z,9.27
2023-04-27T00:12:04.214Z,10.27
2023-04-27T00:14:31.859Z,14.15
2023-04-27T00:16:59.434Z,11.52
2023-04-27T00:19:28.615Z,11.98
2023-04-27T00:21:57.880Z,10.25
2023-04-27T00:24:25.793Z,12.90
2023-04-27T00:26:53.584Z,13.68
2023-04-27T00:29:22.562Z,17.63
2023-04-27T00:31:50.456Z,10.55
2023-04-27T00:34:18.303Z,12.10
2023-04-27T00:36:46.072Z,10.43
2023-04-27T00:39:13.860Z,9.43
2023-04-27T00:41:41.655Z,18.23
2023-04-27T00:44:09.393Z,10.70
2023-04-27T00:46:38.668Z,12.32
2023-04-27T00:49:06.314Z,13.25
2023-04-27T00:51:33.946Z,10.55
2023-04-27T00:54:02.132Z,10.05
2023-04-27T00:56:30.943Z,11.02
2023-04-27T00:58:58.586Z,9.50
2023-04-27T01:01:26.950Z,14.15
2023-04-27T01:03:56.299Z,10.88
2023-04-27T01:06:24.153Z,10.50
2023-04-27T01:08:51.777Z,13.70
2023-04-27T01:11:20.304Z,9.45
2023-04-27T01:13:48.564Z,13.68
2023-04-27T01:16:18.304Z,12.35
2023-04-27T01:18:47.125Z,10.63
2023-04-27T01:21:16.670Z,10.68
2023-04-27T01:23:45.661Z,10.85
2023-04-27T01:26:16.477Z,14.05
2023-04-27T01:28:44.159Z,10.60
2023-04-27T01:31:12.525Z,12.38
2023-04-27T01:33:40.533Z,9.40
2023-04-27T01:36:08.936Z,13.07
2023-04-27T01:38:37.635Z,9.52
2023-04-27T01:41:09.094Z,11.07
2023-04-27T01:43:37.736Z,8.98
2023-04-27T01:46:08.542Z,9.73
2023-04-27T01:48:36.373Z,9.75
2023-04-27T01:51:04.152Z,9.50
2023-04-27T01:53:32.531Z,11.20
2023-04-27T01:56:00.836Z,12.93
2023-04-27T01:58:30.091Z,11.63
2023-04-27T02:00:57.775Z,9.82
2023-04-27T02:03:25.623Z,14.35
2023-04-27T02:05:53.456Z,9.65
2023-04-27T02:08:21.164Z,14.48
2023-04-27T02:10:48.944Z,15.20
2023-04-27T02:13:16.568Z,15.98
2023-04-27T02:15:45.602Z,10.00
2023-04-27T02:18:14.349Z,16.10
2023-04-27T02:20:42.215Z,11.32
2023-04-27T02:23:09.968Z,12.57
2023-04-27T02:25:37.942Z,10.10
2023-04-27T02:28:05.708Z,13.88
2023-04-27T02:30:33.881Z,13.50
2023-04-27T02:33:03.025Z,17.02
2023-04-27T02:35:32.499Z,12.52
2023-04-27T02:38:00.367Z,12.23
2023-04-27T02:40:28.374Z,13.52
2023-04-27T02:42:56.023Z,11.00
2023-04-27T02:45:23.685Z,11.40
2023-04-27T02:47:52.270Z,17.63
2023-04-27T02:50:21.500Z,12.07
2023-04-27T02:52:49.177Z,11.25
2023-04-27T02:55:17.309Z,10.35
2023-04-27T02:57:45.470Z,15.25
2023-04-27T03:00:13.585Z,13.00
2023-04-27T03:02:41.433Z,15.32
2023-04-27T03:05:09.498Z,11.13
2023-04-27T03:07:38.474Z,16.60
2023-04-27T03:10:06.609Z,13.00
2023-04-27T03:12:34.364Z,12.40
2023-04-27T03:15:02.041Z,15.85
2023-04-27T03:17:29.778Z,10.13
2023-04-27T03:19:57.582Z,10.63
2023-04-27T03:22:25.335Z,11.95
2023-04-27T03:24:54.389Z,12.85
2023-04-27T03:27:21.975Z,14.77
2023-04-27T03:29:52.780Z,11.02
2023-04-27T03:32:20.465Z,15.23
2023-04-27T03:34:48.131Z,12.63
2023-04-27T03:37:15.875Z,13.18
2023-04-27T03:39:44.870Z,17.83
2023-04-27T03:42:13.889Z,13.00
2023-04-27T03:44:41.613Z,18.25
2023-04-27T03:47:09.835Z,12.70
2023-04-27T03:49:37.489Z,14.18
2023-04-27T03:52:05.549Z,15.05
2023-04-27T03:54:33.180Z,15.30
2023-04-27T03:57:02.335Z,16.80
2023-04-27T03:59:31.566Z,14.23
2023-04-27T04:02:01.146Z,14.23
2023-04-27T04:04:29.386Z,17.15
2023-04-27T04:06:57.234Z,17.58
2023-04-27T04:09:25.014Z,19.88
2023-04-27T04:11:52.913Z,22.33
2023-04-27T04:14:20.709Z,14.13
2023-04-27T04:16:49.704Z,15.32
2023-04-27T04:19:17.563Z,27.25
2023-04-27T04:21:47.428Z,25.25
2023-04-27T04:24:15.987Z,25.42
2023-04-27T04:26:43.655Z,18.25
2023-04-27T04:29:11.623Z,24.10
2023-04-27T04:31:40.366Z,22.95
2023-04-27T04:34:10.194Z,24.52
2023-04-27T04:36:38.096Z,14.30
2023-04-27T04:39:06.766Z,16.42
2023-04-27T04:41:34.454Z,19.25
2023-04-27T04:44:02.041Z,31.48
2023-04-27T04:46:30.650Z,23.77
2023-04-27T04:48:58.776Z,19.27
2023-04-27T04:51:27.781Z,19.15
2023-04-27T04:53:55.545Z,22.67
2023-04-27T04:56:23.256Z,20.10
2023-04-27T04:58:51.092Z,18.85
2023-04-27T05:01:18.889Z,19.55
2023-04-27T05:03:46.851Z,15.27
2023-04-27T05:06:14.679Z,18.70
2023-04-27T05:08:43.862Z,14.75
2023-04-27T05:11:11.643Z,16.17
2023-04-27T05:13:50.883Z,14.73
2023-04-27T05:16:18.676Z,18.25
2023-04-27T05:18:46.386Z,13.70
2023-04-27T05:21:17.707Z,16.63
2023-04-27T05:23:46.756Z,19.25
2023-04-27T05:26:14.854Z,21.70
2023-04-27T05:28:42.485Z,17.48
2023-04-27T05:31:10.641Z,22.70
2023-04-27T05:33:40.937Z,25.85
2023-04-27T05:36:09.215Z,30.48
2023-04-27T05:38:40.300Z,20.42
2023-04-27T05:41:09.581Z,31.27
2023-04-27T05:43:39.748Z,31.98
2023-04-27T05:46:07.718Z,27.52
2023-04-27T05:48:36.096Z,24.48
2023-04-27T05:51:05.147Z,20.95
2023-04-27T05:53:33.982Z,21.70
2023-04-27T05:56:07.492Z,25.95
2023-04-27T05:58:38.958Z,22.48
2023-04-27T06:01:06.861Z,21.85
2023-04-27T06:03:34.648Z,18.48
2023-04-27T06:06:02.729Z,17.15
2023-04-27T06:08:30.886Z,19.73
2023-04-27T06:10:58.971Z,14.93
2023-04-27T06:13:27.027Z,12.55
2023-04-27T06:15:56.302Z,12.00
2023-04-27T06:18:24.132Z,20.55
2023-04-27T06:20:52.314Z,16.08
2023-04-27T06:23:20.047Z,13.00
2023-04-27T06:25:47.790Z,26.15
2023-04-27T06:28:15.571Z,20.38
2023-04-27T06:30:45.140Z,19.27
2023-04-27T06:33:17.153Z,16.92
2023-04-27T06:35:47.427Z,20.25
2023-04-27T06:38:15.451Z,18.30
2023-04-27T06:40:43.742Z,16.23
2023-04-27T06:43:20.542Z,23.05
2023-04-27T06:45:48.347Z,20.67
2023-04-27T06:48:17.716Z,19.58
2023-04-27T06:50:45.481Z,29.00
2023-04-27T06:53:13.716Z,28.48
2023-04-27T06:55:43.547Z,14.48
2023-04-27T06:58:12.766Z,19.60
2023-04-27T07:00:40.743Z,22.70
2023-04-27T07:03:08.706Z,12.90
2023-04-27T07:05:37.986Z,18.35
2023-04-27T07:08:07.948Z,19.17
2023-04-27T07:10:36.582Z,22.58
2023-04-27T07:13:05.825Z,22.45
2023-04-27T07:15:35.053Z,22.63
2023-04-27T07:18:02.915Z,16.95
2023-04-27T07:20:30.602Z,19.88
2023-04-27T07:22:59.907Z,22.15
2023-04-27T07:25:27.881Z,16.38
2023-04-27T07:27:56.996Z,22.08
2023-04-27T07:30:25.447Z,20.40
2023-04-27T07:32:54.960Z,20.48
2023-04-27T07:35:22.909Z,19.35
2023-04-27T07:37:52.206Z,15.63
2023-04-27T07:40:24.106Z,20.10
2023-04-27T07:42:52.024Z,18.85
2023-04-27T07:45:20.402Z,19.38
2023-04-27T07:47:48.284Z,24.30
2023-04-27T07:50:19.053Z,19.73
2023-04-27T07:52:47.088Z,17.65
2023-04-27T07:55:14.700Z,21.92
2023-04-27T07:57:43.715Z,24.95
2023-04-27T08:00:13.370Z,22.90
2023-04-27T08:02:41.266Z,24.73
2023-04-27T08:05:09.671Z,20.27
2023-04-27T08:07:44.230Z,25.77
2023-04-27T08:10:12.509Z,27.70
2023-04-27T08:12:40.913Z,18.13
2023-04-27T08:15:11.683Z,18.35
2023-04-27T08:17:41.387Z,16.40
2023-04-27T08:20:11.354Z,17.25
2023-04-27T08:22:39.203Z,19.40
2023-04-27T08:25:08.620Z,18.42
2023-04-27T08:27:38.014Z,20.98
2023-04-27T08:30:06.230Z,18.92
2023-04-27T08:32:35.522Z,24.85
2023-04-27T08:35:05.089Z,17.58
2023-04-27T08:37:33.042Z,16.55
2023-04-27T08:40:00.838Z,14.60
2023-04-27T08:42:30.684Z,16.05
2023-04-27T08:44:58.343Z,16.08
2023-04-27T08:47:35.083Z,15.60
2023-04-27T08:50:11.944Z,16.38
2023-04-27T08:52:39.602Z,16.95
2023-04-27T08:55:08.560Z,15.68
2023-04-27T08:57:36.520Z,17.83
2023-04-27T09:00:07.998Z,18.60
2023-04-27T09:02:35.764Z,13.15
2023-04-27T09:05:04.284Z,16.23
2023-04-27T09:07:34.694Z,15.60
2023-04-27T09:10:05.562Z,18.95
2023-04-27T09:12:33.733Z,19.95
2023-04-27T09:15:03.641Z,19.77
2023-04-27T09:17:33.734Z,14.43
2023-04-27T09:20:08.690Z,13.20
2023-04-27T09:22:46.682Z,13.52
2023-04-27T09:25:23.568Z,13.20
2023-04-27T09:27:51.519Z,17.63
2023-04-27T09:30:19.747Z,15.38
2023-04-27T09:32:52.757Z,13.38
2023-04-27T09:35:23.004Z,12.30
2023-04-27T09:37:53.391Z,13.30
2023-04-27T09:40:23.621Z,16.73
2023-04-27T09:42:51.751Z,13.07
2023-04-27T09:45:19.925Z,12.43
2023-04-27T09:47:48.251Z,17.67
2023-04-27T09:50:16.284Z,11.43
2023-04-27T09:52:44.226Z,12.73
2023-04-27T09:55:16.713Z,13.65
2023-04-27T09:57:52.781Z,12.25
2023-04-27T10:00:25.522Z,12.10
2023-04-27T10:03:07.728Z,9.48
2023-04-27T10:05:39.503Z,19.23
2023-04-27T10:08:07.563Z,14.88
2023-04-27T10:10:45.086Z,11.60
2023-04-27T10:13:21.381Z,14.07
2023-04-27T10:15:49.285Z,12.95
2023-04-27T10:18:27.208Z,10.98
2023-04-27T10:20:54.889Z,12.48
2023-04-27T10:23:26.435Z,14.55
2023-04-27T10:25:56.218Z,10.77
2023-04-27T10:28:23.834Z,16.70
2023-04-27T10:30:52.014Z,12.30
2023-04-27T10:33:21.466Z,17.42
2023-04-27T10:35:55.550Z,16.70
2023-04-27T10:38:28.157Z,16.52
2023-04-27T10:40:57.701Z,15.18
2023-04-27T10:43:26.584Z,15.32
2023-04-27T10:45:54.421Z,15.15
2023-04-27T10:48:22.400Z,16.30
2023-04-27T10:50:51.881Z,12.52
2023-04-27T10:53:19.595Z,12.68
2023-04-27T10:55:47.269Z,15.55
2023-04-27T10:58:16.495Z,14.27
2023-04-27T11:00:44.986Z,13.73
2023-04-27T11:03:14.785Z,15.30
2023-04-27T11:05:43.036Z,17.77
2023-04-27T11:08:11.915Z,14.63
2023-04-27T11:10:40.413Z,16.30
2023-04-27T11:13:11.882Z,14.27
2023-04-27T11:15:50.984Z,12.65
2023-04-27T11:18:19.837Z,11.50
2023-04-27T11:20:48.895Z,14.80
2023-04-27T11:23:24.174Z,13.48
2023-04-27T11:28:20.482Z,12.40
2023-04-27T11:30:49.367Z,16.90
2023-04-27T11:33:18.356Z,17.45
2023-04-27T11:35:46.218Z,15.18
2023-04-27T11:38:16.995Z,17.38
2023-04-27T11:40:44.645Z,12.57
2023-04-27T11:43:13.506Z,14.38
2023-04-27T11:45:43.455Z,12.57
2023-04-27T11:48:14.528Z,12.20
2023-04-27T11:50:47.224Z,17.88
2023-04-27T11:53:17.383Z,14.43
2023-04-27T11:55:46.259Z,14.93
2023-04-27T11:58:17.087Z,16.77
2023-04-27T12:00:44.711Z,15.18
2023-04-27T12:03:12.574Z,16.27
2023-04-27T12:05:50.961Z,19.95
2023-04-27T12:08:18.839Z,12.80
2023-04-27T12:10:46.815Z,19.05
2023-04-27T12:13:15.348Z,14.38
2023-04-27T12:15:43.513Z,19.00
2023-04-27T12:18:11.609Z,15.98
2023-04-27T12:20:39.318Z,16.27
2023-04-27T12:23:08.315Z,17.25
2023-04-27T12:25:36.408Z,15.38
2023-04-27T12:28:04.348Z,16.45
2023-04-27T12:30:32.034Z,15.57
2023-04-27T12:33:01.149Z,15.13
2023-04-27T12:35:32.161Z,14.85
2023-04-27T12:37:59.911Z,15.98
2023-04-27T12:40:29.027Z,20.98
2023-04-27T12:42:57.926Z,14.68
2023-04-27T12:45:26.718Z,15.30
2023-04-27T12:48:03.383Z,16.52
2023-04-27T12:50:32.570Z,21.40
2023-04-27T12:53:00.618Z,14.82
2023-04-27T12:55:33.857Z,19.48
2023-04-27T12:58:02.493Z,18.98
2023-04-27T13:00:30.569Z,19.23
2023-04-27T13:02:58.584Z,19.13
2023-04-27T13:05:26.514Z,16.27
2023-04-27T13:07:54.284Z,18.63
2023-04-27T13:10:21.980Z,15.90
2023-04-27T13:13:11.630Z,13.80
2023-04-27T13:15:39.557Z,17.20
2023-04-27T13:18:07.368Z,17.45
2023-04-27T13:20:35.062Z,20.88
2023-04-27T13:23:05.948Z,18.65
2023-04-27T13:25:34.427Z,17.20
2023-04-27T13:28:05.614Z,13.55
2023-04-27T13:30:33.413Z,17.50
2023-04-27T13:33:18.399Z,16.17
2023-04-27T13:35:52.610Z,16.05
2023-04-27T13:38:20.391Z,16.02
2023-04-27T13:40:48.205Z,15.68
2023-04-27T13:43:17.254Z,14.93
2023-04-27T13:45:45.466Z,18.48
2023-04-27T13:48:13.407Z,19.25
2023-04-27T13:50:41.253Z,15.18
2023-04-27T13:53:09.048Z,16.25
2023-04-27T13:55:38.665Z,17.27
2023-04-27T13:58:08.138Z,18.60
2023-04-27T14:00:37.535Z,15.70
2023-04-27T14:03:05.666Z,16.10
2023-04-27T14:05:33.444Z,13.15
2023-04-27T14:08:01.142Z,17.80
2023-04-27T14:10:29.076Z,19.13
2023-04-27T14:12:57.624Z,17.05
2023-04-27T14:15:25.345Z,20.02
2023-04-27T14:17:54.577Z,16.27
2023-04-27T14:20:27.283Z,16.02
2023-04-27T14:22:56.655Z,15.10
2023-04-27T14:25:25.980Z,18.40
2023-04-27T14:27:53.632Z,14.55
2023-04-27T14:30:21.827Z,17.40
2023-04-27T14:32:49.507Z,18.05
2023-04-27T14:35:20.754Z,17.95
2023-04-27T14:37:48.863Z,19.05
2023-04-27T14:40:16.641Z,18.05
2023-04-27T14:42:44.242Z,22.55
2023-04-27T14:45:12.758Z,17.45
2023-04-27T14:47:40.477Z,18.73
2023-04-27T14:50:08.696Z,16.15
2023-04-27T14:52:37.850Z,15.70
2023-04-27T14:55:06.281Z,15.65
2023-04-27T14:57:33.966Z,16.05
2023-04-27T15:00:01.742Z,15.95
2023-04-27T15:02:31.240Z,20.00
2023-04-27T15:05:00.933Z,17.23
2023-04-27T15:07:28.714Z,19.83
2023-04-27T15:09:57.753Z,19.58
2023-04-27T15:12:25.460Z,19.85
2023-04-27T15:14:54.054Z,17.48
2023-04-27T15:17:22.381Z,19.70
2023-04-27T15:19:51.601Z,18.05
2023-04-27T15:22:19.319Z,19.42
2023-04-27T15:24:49.907Z,20.63
2023-04-27T15:27:19.456Z,19.95
2023-04-27T15:29:47.146Z,18.90
2023-04-27T15:32:14.875Z,21.60
2023-04-27T15:34:44.608Z,19.42
2023-04-27T15:37:12.456Z,19.92
2023-04-27T15:39:40.104Z,15.88
2023-04-27T15:42:07.768Z,15.07
2023-04-27T15:44:37.094Z,18.83
2023-04-27T15:47:05.009Z,17.67
2023-04-27T15:49:39.914Z,15.02
2023-04-27T15:52:13.811Z,19.20
2023-04-27T15:54:42.008Z,18.95
2023-04-27T15:57:09.621Z,22.20
2023-04-27T15:59:38.594Z,24.58
2023-04-27T16:02:06.318Z,25.60
2023-04-27T16:04:34.014Z,22.58
2023-04-27T16:07:01.635Z,19.55
2023-04-27T16:09:29.311Z,28.30
2023-04-27T16:11:57.050Z,25.80
2023-04-27T16:14:24.791Z,19.40
2023-04-27T16:16:56.201Z,14.13
2023-04-27T16:19:24.379Z,23.17
2023-04-27T16:21:52.114Z,18.45
2023-04-27T16:24:20.324Z,19.40
2023-04-27T16:26:49.594Z,20.20
2023-04-27T16:29:17.328Z,27.25
2023-04-27T16:31:45.522Z,15.15
2023-04-27T16:34:14.759Z,20.83
2023-04-27T16:36:43.536Z,15.98
2023-04-27T16:39:11.587Z,20.70
2023-04-27T16:41:40.406Z,20.13
2023-04-27T16:44:08.155Z,17.00
2023-04-27T16:46:35.958Z,16.90
2023-04-27T16:49:03.797Z,18.77
2023-04-27T16:51:33.230Z,24.50
2023-04-27T16:54:01.111Z,17.88
2023-04-27T16:56:29.434Z,19.40
2023-04-27T16:58:57.488Z,19.70
2023-04-27T17:01:26.130Z,19.67
2023-04-27T17:03:54.831Z,19.92
2023-04-27T17:06:23.159Z,19.13
2023-04-27T17:08:52.234Z,20.15
2023-04-27T17:11:20.140Z,19.45
2023-04-27T17:13:51.315Z,18.80
2023-04-27T17:16:19.421Z,17.45
2023-04-27T17:18:47.236Z,18.33
2023-04-27T17:21:15.108Z,18.92
2023-04-27T17:23:42.766Z,19.02
2023-04-27T17:26:12.729Z,18.75
2023-04-27T17:28:40.483Z,16.35
2023-04-27T17:31:08.854Z,18.83
2023-04-27T17:33:36.723Z,17.98
2023-04-27T17:36:04.648Z,19.25
2023-04-27T17:38:32.314Z,16.40
2023-04-27T17:41:00.183Z,20.55
2023-04-27T17:43:29.240Z,20.33
2023-04-27T17:45:56.853Z,17.33
2023-04-27T17:48:24.643Z,19.27
2023-04-27T17:50:53.070Z,17.90
2023-04-27T17:53:20.702Z,16.52
2023-04-27T17:55:49.048Z,16.65
2023-04-27T17:58:17.183Z,18.63
2023-04-27T18:00:46.260Z,18.60
2023-04-27T18:03:14.202Z,20.52
2023-04-27T18:05:42.129Z,18.00
2023-04-27T18:08:09.801Z,19.83
2023-04-27T18:10:37.497Z,20.35
2023-04-27T18:13:05.277Z,24.00
2023-04-27T18:15:33.091Z,20.67
2023-04-27T18:18:02.148Z,19.67
2023-04-27T18:20:30.830Z,17.58
2023-04-27T18:22:58.721Z,19.77
2023-04-27T18:25:41.952Z,17.30
2023-04-27T18:28:10.071Z,23.92
2023-04-27T18:30:37.821Z,21.50
2023-04-27T18:33:06.947Z,23.23
2023-04-27T18:35:34.692Z,17.65
2023-04-27T18:38:03.531Z,13.52
2023-04-27T18:40:31.649Z,17.98
2023-04-27T18:42:59.363Z,18.00
2023-04-27T18:45:29.500Z,17.45
2023-04-27T18:47:57.319Z,19.38
2023-04-27T18:50:26.526Z,23.05
2023-04-27T18:52:54.191Z,15.38
2023-04-27T18:55:22.680Z,25.05
2023-04-27T18:57:50.343Z,17.63
2023-04-27T19:00:18.198Z,22.55
2023-04-27T19:02:46.160Z,19.70
2023-04-27T19:05:15.939Z,23.08
2023-04-27T19:07:45.295Z,22.38
2023-04-27T19:10:13.047Z,20.80
2023-04-27T19:12:40.684Z,18.77
2023-04-27T19:15:08.565Z,21.88
2023-04-27T19:17:36.367Z,18.92
2023-04-27T19:20:04.637Z,19.40
2023-04-27T19:22:34.328Z,21.40
2023-04-27T19:25:03.852Z,20.67
2023-04-27T19:27:31.742Z,22.83
2023-04-27T19:29:59.684Z,30.33
2023-04-27T19:32:27.771Z,20.88
2023-04-27T19:34:56.073Z,22.52
2023-04-27T19:37:23.817Z,28.00
2023-04-27T19:39:51.674Z,21.20
2023-04-27T19:42:20.705Z,20.67
2023-04-27T19:44:48.322Z,22.02
2023-04-27T19:47:16.181Z,22.88
2023-04-27T19:49:43.861Z,26.33
2023-04-27T19:52:11.504Z,21.52
2023-04-27T19:54:39.222Z,26.58
2023-04-27T19:57:08.456Z,25.92
2023-04-27T19:59:41.698Z,24.45
2023-04-27T20:02:09.590Z,28.42
2023-04-27T20:04:37.504Z,21.08
2023-04-27T20:07:06.317Z,24.20
2023-04-27T20:09:34.450Z,23.70
2023-04-27T20:12:02.104Z,26.98
2023-04-27T20:14:31.329Z,24.48
2023-04-27T20:17:00.371Z,22.15
2023-04-27T20:19:28.350Z,22.48
2023-04-27T20:21:56.091Z,27.45
2023-04-27T20:24:24.202Z,27.90
2023-04-27T20:26:51.839Z,22.55
2023-04-27T20:29:19.548Z,33.17
2023-04-27T20:31:48.689Z,22.75
2023-04-27T20:34:17.920Z,20.25
2023-04-27T20:36:45.724Z,20.60
2023-04-27T20:39:13.438Z,27.23
2023-04-27T20:41:42.083Z,28.67
2023-04-27T20:44:10.426Z,25.90
2023-04-27T20:46:38.552Z,23.77
2023-04-27T20:49:06.523Z,24.50
2023-04-27T20:51:35.863Z,25.88
2023-04-27T20:54:03.554Z,26.48
2023-04-27T20:56:32.898Z,24.67
2023-04-27T20:59:00.774Z,26.50
2023-04-27T21:01:28.514Z,23.55
2023-04-27T21:03:58.107Z,29.17
2023-04-27T21:06:25.901Z,25.23
2023-04-27T21:08:54.915Z,27.40
2023-04-27T21:11:22.608Z,27.77
2023-04-27T21:13:50.546Z,25.52
2023-04-27T21:16:18.826Z,26.67
2023-04-27T21:18:46.520Z,26.40
2023-04-27T21:21:14.170Z,27.35
2023-04-27T21:23:41.910Z,27.73
2023-04-27T21:26:11.153Z,28.80
2023-04-27T21:28:40.326Z,26.63
2023-04-27T21:31:08.150Z,25.20
2023-04-27T21:33:35.884Z,24.17
2023-04-27T21:36:04.734Z,19.45
2023-04-27T21:38:32.527Z,28.35
2023-04-27T21:41:05.410Z,26.35
2023-04-27T21:43:34.479Z,24.75
2023-04-27T21:46:02.224Z,21.25
2023-04-27T21:48:29.901Z,28.00
2023-04-27T21:50:57.584Z,23.00
2023-04-27T21:53:25.419Z,27.95
2023-04-27T21:55:53.138Z,22.73
2023-04-27T21:58:23.070Z,28.00
2023-04-27T22:00:52.108Z,26.13
2023-04-27T22:03:19.947Z,27.77
2023-04-27T22:05:49.076Z,33.85
2023-04-27T22:08:17.302Z,24.63
2023-04-27T22:10:45.386Z,23.20
2023-04-27T22:13:18.383Z,24.42
2023-04-27T22:15:47.394Z,24.58
2023-04-27T22:18:16.710Z,28.23
2023-04-27T22:20:44.537Z,23.77
2023-04-27T22:23:12.301Z,28.15
2023-04-27T22:25:42.585Z,22.27
2023-04-27T22:28:10.367Z,31.27
2023-04-27T22:30:38.052Z,29.05
2023-04-27T22:33:06.407Z,27.17
2023-04-27T22:35:36.349Z,24.42
2023-04-27T22:38:04.182Z,22.27
2023-04-27T22:40:31.967Z,27.52
2023-04-27T22:42:59.770Z,22.60
2023-04-27T22:45:27.446Z,24.92
2023-04-27T22:47:55.289Z,25.77
2023-04-27T22:50:23.097Z,28.90
2023-04-27T22:52:53.030Z,24.33
2023-04-27T22:55:20.692Z,21.70
2023-04-27T22:57:49.997Z,33.75
2023-04-27T23:00:17.717Z,29.88
2023-04-27T23:02:45.505Z,27.00
2023-04-27T23:05:13.485Z,25.55
2023-04-27T23:07:42.838Z,30.15
2023-04-27T23:10:13.022Z,26.52
2023-04-27T23:12:40.682Z,35.20
2023-04-27T23:15:09.513Z,32.53
2023-04-27T23:17:37.420Z,27.10
2023-04-27T23:20:24.136Z,35.95
2023-04-27T23:22:55.602Z,34.75
2023-04-27T23:25:24.628Z,34.20
2023-04-27T23:27:53.043Z,27.55
2023-04-27T23:30:21.151Z,34.17
2023-04-27T23:32:48.793Z,27.65
2023-04-27T23:35:16.436Z,32.03
2023-04-27T23:37:44.318Z,41.10
2023-04-27T23:40:14.588Z,38.53
2023-04-27T23:42:43.601Z,40.53
2023-04-27T23:45:11.824Z,29.88
2023-04-27T23:47:39.494Z,37.88
2023-04-27T23:50:07.550Z,36.83
2023-04-27T23:52:35.935Z,33.05
2023-04-27T23:55:03.714Z,36.22
2023-04-27T23:57:31.330Z,37.92
